Time;durP1;ratioP1;P1;durP2;ratioP2;P2;SDS_P1;SDS_P2;PMS_P1;PMS_P2;Temp;Humidity;BMP_temperature;BMP_pressure;BME280_temperature;BME280_humidity;BME280_pressure;Samples;Min_cycle;Max_cycle;Signal;HPM_P1;HPM_P2
2022/11/13 00:01:14;;;;;;;116.75;46.20;;;;;;;;;;5019918;28;20030;-70
2022/11/13 00:03:39;;;;;;;121.88;43.47;;;;;;;;;;5024599;28;20025;-69
2022/11/13 00:06:05;;;;;;;116.30;46.50;;;;;;;;;;5024208;28;20403;-71
2022/11/13 00:08:30;;;;;;;113.22;44.58;;;;;;;;;;5020910;28;20063;-69
2022/11/13 00:10:59;;;;;;;107.10;44.70;;;;;;;;;;5022844;28;20029;-71
2022/11/13 00:13:24;;;;;;;101.30;44.42;;;;;;;;;;5024496;28;20144;-72
2022/11/13 00:16:00;;;;;;;114.40;45.45;;;;;;;;;;5022996;28;20112;-70
2022/11/13 00:18:25;;;;;;;84.45;37.05;;;;;;;;;;5024200;28;20018;-69
2022/11/13 00:20:50;;;;;;;101.35;40.83;;;;;;;;;;5027522;28;20033;-69
2022/11/13 00:23:16;;;;;;;95.18;38.33;;;;;;;;;;5030697;28;20051;-70
2022/11/13 00:25:41;;;;;;;79.90;36.00;;;;;;;;;;5031849;28;20037;-71
2022/11/13 00:28:06;;;;;;;114.93;46.80;;;;;;;;;;5031161;28;20021;-71
2022/11/13 00:30:31;;;;;;;107.15;44.88;;;;;;;;;;5031061;28;20009;-71
2022/11/13 00:32:56;;;;;;;104.07;41.70;;;;;;;;;;5030842;28;20029;-70
2022/11/13 00:35:22;;;;;;;96.72;41.95;;;;;;;;;;5031276;28;20549;-67
2022/11/13 00:37:47;;;;;;;86.85;40.05;;;;;;;;;;5030202;28;20075;-69
2022/11/13 00:40:12;;;;;;;82.82;36.42;;;;;;;;;;5031385;28;20013;-68
2022/11/13 00:42:37;;;;;;;95.18;38.80;;;;;;;;;;5028115;28;20022;-70
2022/11/13 00:45:03;;;;;;;94.70;40.72;;;;;;;;;;5031089;28;20056;-71
2022/11/13 00:47:28;;;;;;;105.55;41.22;;;;;;;;;;5029698;28;20021;-70
2022/11/13 00:49:53;;;;;;;83.53;38.88;;;;;;;;;;5031177;28;20029;-71
2022/11/13 00:52:18;;;;;;;92.45;38.00;;;;;;;;;;5030002;28;20101;-68
2022/11/13 00:54:44;;;;;;;86.85;38.72;;;;;;;;;;5029006;28;20013;-67
2022/11/13 00:57:09;;;;;;;86.10;36.65;;;;;;;;;;5028912;28;20053;-68
2022/11/13 00:59:34;;;;;;;78.75;35.75;;;;;;;;;;5030954;28;20108;-71
2022/11/13 01:01:59;;;;;;;86.68;36.95;;;;;;;;;;5041272;28;20036;-67
2022/11/13 01:04:27;;;;;;;82.43;36.85;;;;;;;;;;5030332;28;20017;-70
2022/11/13 01:06:52;;;;;;;85.78;34.08;;;;;;;;;;5027414;28;20025;-72
2022/11/13 01:09:17;;;;;;;94.30;37.33;;;;;;;;;;5027544;28;20014;-71
2022/11/13 01:11:42;;;;;;;80.60;35.40;;;;;;;;;;5028189;28;20100;-71
2022/11/13 01:14:08;;;;;;;80.47;33.70;;;;;;;;;;5030339;28;20018;-68
2022/11/13 01:16:33;;;;;;;77.80;34.38;;;;;;;;;;5028669;28;20092;-70
2022/11/13 01:18:58;;;;;;;68.35;31.83;;;;;;;;;;5030313;28;20241;-69
2022/11/13 01:21:25;;;;;;;61.70;29.88;;;;;;;;;;5029360;28;20013;-72
2022/11/13 01:23:50;;;;;;;79.30;31.98;;;;;;;;;;5029984;28;20018;-68
2022/11/13 01:26:18;;;;;;;72.05;33.78;;;;;;;;;;5029156;28;20032;-71
2022/11/13 01:28:43;;;;;;;74.25;33.20;;;;;;;;;;5030045;28;20487;-71
2022/11/13 01:31:10;;;;;;;80.75;33.88;;;;;;;;;;5028942;28;20029;-70
2022/11/13 01:33:35;;;;;;;73.22;31.67;;;;;;;;;;5029391;28;20521;-71
2022/11/13 01:36:02;;;;;;;73.75;31.20;;;;;;;;;;5028165;28;20399;-70
2022/11/13 01:38:27;;;;;;;78.65;30.45;;;;;;;;;;5029258;28;20022;-67
2022/11/13 01:40:52;;;;;;;60.95;29.58;;;;;;;;;;5023578;28;20029;-71
2022/11/13 01:43:25;;;;;;;75.47;31.45;;;;;;;;;;5030051;28;20024;-69
2022/11/13 01:45:57;;;;;;;71.10;32.55;;;;;;;;;;5028686;28;20053;-68
2022/11/13 01:48:22;;;;;;;84.82;32.78;;;;;;;;;;5029523;28;20032;-70
2022/11/13 01:50:47;;;;;;;66.38;29.48;;;;;;;;;;5029451;28;20105;-68
2022/11/13 01:53:13;;;;;;;73.32;31.27;;;;;;;;;;5029158;28;20021;-72
2022/11/13 01:55:38;;;;;;;64.70;29.40;;;;;;;;;;5029593;28;20530;-68
2022/11/13 01:58:05;;;;;;;68.82;29.95;;;;;;;;;;5027500;28;20089;-70
2022/11/13 02:00:30;;;;;;;76.60;32.78;;;;;;;;;;5030039;28;20663;-68
2022/11/13 02:02:55;;;;;;;74.65;30.48;;;;;;;;;;5029364;28;20029;-71
2022/11/13 02:05:21;;;;;;;70.15;32.05;;;;;;;;;;5028897;28;20021;-69
2022/11/13 02:07:46;;;;;;;63.65;28.42;;;;;;;;;;5028103;28;20152;-70
2022/11/13 02:10:11;;;;;;;66.20;31.25;;;;;;;;;;5029497;28;20048;-71
2022/11/13 02:12:39;;;;;;;70.07;30.40;;;;;;;;;;5029023;28;20033;-69
2022/11/13 02:15:05;;;;;;;76.70;30.85;;;;;;;;;;5028815;28;20025;-70
2022/11/13 02:17:32;;;;;;;77.45;32.42;;;;;;;;;;5028286;28;20136;-68
2022/11/13 02:19:59;;;;;;;75.20;32.13;;;;;;;;;;5029489;28;20148;-67
2022/11/13 02:22:27;;;;;;;79.32;33.05;;;;;;;;;;5028267;28;20021;-69
2022/11/13 02:24:53;;;;;;;70.87;29.93;;;;;;;;;;5029153;28;20013;-69
2022/11/13 02:27:22;;;;;;;71.30;31.88;;;;;;;;;;5028123;28;20083;-67
2022/11/13 02:29:47;;;;;;;70.55;29.83;;;;;;;;;;5028881;28;20554;-67
2022/11/13 02:32:13;;;;;;;63.45;27.88;;;;;;;;;;5028205;28;20120;-70
2022/11/13 02:34:38;;;;;;;71.15;30.42;;;;;;;;;;5028746;28;20101;-67
2022/11/13 02:37:03;;;;;;;69.18;30.48;;;;;;;;;;5027184;28;20116;-69
2022/11/13 02:39:28;;;;;;;64.95;30.65;;;;;;;;;;5029125;28;20189;-68
2022/11/13 02:41:53;;;;;;;74.78;28.92;;;;;;;;;;5027410;28;20053;-68
2022/11/13 02:44:19;;;;;;;58.58;26.33;;;;;;;;;;5028881;28;20372;-71
2022/11/13 02:46:44;;;;;;;65.20;28.67;;;;;;;;;;5026885;28;20537;-68
2022/11/13 02:49:09;;;;;;;65.15;29.48;;;;;;;;;;5029119;28;20021;-70
2022/11/13 02:51:34;;;;;;;63.25;28.13;;;;;;;;;;5028514;28;20384;-69
2022/11/13 02:54:00;;;;;;;68.15;30.80;;;;;;;;;;5029376;28;20017;-68
2022/11/13 02:56:25;;;;;;;58.92;28.92;;;;;;;;;;5027850;28;20483;-70
2022/11/13 02:58:50;;;;;;;59.33;25.42;;;;;;;;;;5029047;28;20068;-69
2022/11/13 03:01:16;;;;;;;57.08;27.48;;;;;;;;;;5028072;28;20084;-73
2022/11/13 03:03:41;;;;;;;53.83;27.58;;;;;;;;;;5028822;28;20049;-68
2022/11/13 03:06:06;;;;;;;65.40;26.25;;;;;;;;;;5027787;28;20041;-69
2022/11/13 03:08:31;;;;;;;56.83;24.83;;;;;;;;;;5025375;28;20029;-71
2022/11/13 03:10:57;;;;;;;61.53;27.02;;;;;;;;;;5028102;28;20025;-67
2022/11/13 03:13:22;;;;;;;60.47;26.48;;;;;;;;;;5028685;28;20063;-68
2022/11/13 03:15:47;;;;;;;54.05;25.50;;;;;;;;;;5026587;28;20044;-69
2022/11/13 03:18:12;;;;;;;55.92;24.90;;;;;;;;;;5028017;28;20033;-71
2022/11/13 03:20:39;;;;;;;50.90;25.02;;;;;;;;;;5031852;28;20036;-67
2022/11/13 03:23:04;;;;;;;62.78;25.02;;;;;;;;;;5032386;28;20522;-69
2022/11/13 03:25:30;;;;;;;50.17;23.75;;;;;;;;;;5032613;28;20026;-68
2022/11/13 03:27:55;;;;;;;52.67;24.63;;;;;;;;;;5031646;28;20025;-70
2022/11/13 03:30:20;;;;;;;53.45;24.75;;;;;;;;;;5032299;28;20627;-69
2022/11/13 03:32:45;;;;;;;48.85;22.77;;;;;;;;;;5031395;28;20021;-67
2022/11/13 03:35:11;;;;;;;52.45;23.75;;;;;;;;;;5032226;28;20029;-67
2022/11/13 03:37:36;;;;;;;59.10;26.27;;;;;;;;;;5031487;28;20416;-67
2022/11/13 03:40:01;;;;;;;53.00;23.95;;;;;;;;;;5031983;28;20033;-66
2022/11/13 03:42:26;;;;;;;46.72;23.25;;;;;;;;;;5022051;28;20026;-69
2022/11/13 03:44:52;;;;;;;51.83;23.55;;;;;;;;;;5028782;28;20100;-71
2022/11/13 03:47:17;;;;;;;56.08;23.98;;;;;;;;;;5030404;28;20403;-65
2022/11/13 03:49:42;;;;;;;45.92;22.67;;;;;;;;;;5031975;28;20065;-70
2022/11/13 03:52:07;;;;;;;60.33;23.25;;;;;;;;;;5030557;28;20068;-69
2022/11/13 03:54:32;;;;;;;53.03;21.75;;;;;;;;;;5031832;28;20045;-69
2022/11/13 03:56:58;;;;;;;44.42;22.65;;;;;;;;;;5030602;28;20044;-67
2022/11/13 03:59:23;;;;;;;46.92;21.48;;;;;;;;;;5031714;28;20478;-68
2022/11/13 04:01:48;;;;;;;45.03;20.95;;;;;;;;;;5030669;28;20104;-70
2022/11/13 04:04:14;;;;;;;45.67;21.48;;;;;;;;;;5031524;28;20075;-66
2022/11/13 04:06:39;;;;;;;44.22;20.13;;;;;;;;;;5029457;28;20071;-69
2022/11/13 04:09:05;;;;;;;39.75;19.60;;;;;;;;;;5031544;28;20021;-69
2022/11/13 04:11:30;;;;;;;45.58;20.15;;;;;;;;;;5030800;28;20025;-69
2022/11/13 04:13:56;;;;;;;43.20;20.20;;;;;;;;;;5031529;28;20021;-67
2022/11/13 04:16:21;;;;;;;39.75;20.33;;;;;;;;;;5029335;28;20079;-71
2022/11/13 04:18:46;;;;;;;44.53;19.70;;;;;;;;;;5031617;28;20030;-69
2022/11/13 04:21:11;;;;;;;38.45;19.25;;;;;;;;;;5031235;28;20043;-72
2022/11/13 04:23:36;;;;;;;38.00;19.02;;;;;;;;;;5031690;28;20022;-70
2022/11/13 04:26:02;;;;;;;47.30;18.45;;;;;;;;;;5031828;28;20055;-70
2022/11/13 04:28:27;;;;;;;42.40;18.48;;;;;;;;;;5030359;28;20032;-70
2022/11/13 04:30:53;;;;;;;37.22;19.27;;;;;;;;;;5024394;28;20066;-67
2022/11/13 04:33:18;;;;;;;44.80;20.73;;;;;;;;;;5029346;28;20033;-68
2022/11/13 04:35:44;;;;;;;39.65;19.50;;;;;;;;;;5029111;28;20028;-71
2022/11/13 04:38:10;;;;;;;38.28;18.33;;;;;;;;;;5030168;28;20668;-71
2022/11/13 04:40:35;;;;;;;40.17;19.08;;;;;;;;;;5031308;28;20028;-70
2022/11/13 04:43:01;;;;;;;39.60;18.45;;;;;;;;;;5022913;28;20109;-70
2022/11/13 04:45:26;;;;;;;37.92;18.02;;;;;;;;;;5030411;28;20393;-70
2022/11/13 04:47:52;;;;;;;42.67;19.10;;;;;;;;;;5031207;28;20025;-68
2022/11/13 04:50:17;;;;;;;43.80;19.50;;;;;;;;;;5030957;28;20049;-69
2022/11/13 04:52:42;;;;;;;36.33;18.27;;;;;;;;;;5029904;28;20071;-67
2022/11/13 04:55:08;;;;;;;42.03;20.33;;;;;;;;;;5030747;28;20025;-69
2022/11/13 04:57:33;;;;;;;47.38;19.90;;;;;;;;;;5030594;28;20032;-68
2022/11/13 04:59:59;;;;;;;44.08;20.38;;;;;;;;;;5030205;28;20748;-68
2022/11/13 05:02:24;;;;;;;50.47;20.92;;;;;;;;;;5030102;28;20029;-66
2022/11/13 05:04:49;;;;;;;77.43;29.80;;;;;;;;;;5030662;28;20103;-70
2022/11/13 05:07:15;;;;;;;68.28;31.65;;;;;;;;;;5029106;28;20017;-68
2022/11/13 05:09:40;;;;;;;84.38;35.05;;;;;;;;;;5028065;28;20364;-70
2022/11/13 05:12:06;;;;;;;74.53;33.40;;;;;;;;;;5030916;28;20101;-70
2022/11/13 05:14:35;;;;;;;57.65;27.67;;;;;;;;;;5032114;28;20040;-68
2022/11/13 05:17:00;;;;;;;48.50;26.75;;;;;;;;;;5030685;28;20014;-69
2022/11/13 05:19:25;;;;;;;54.65;24.88;;;;;;;;;;5034309;28;20120;-70
2022/11/13 05:21:51;;;;;;;51.65;23.80;;;;;;;;;;5035550;28;20165;-68
2022/11/13 05:24:16;;;;;;;44.17;22.08;;;;;;;;;;5031757;28;20024;-70
2022/11/13 05:26:41;;;;;;;48.92;21.70;;;;;;;;;;5033160;28;20025;-69
2022/11/13 05:29:06;;;;;;;42.35;20.23;;;;;;;;;;5031331;28;20025;-70
2022/11/13 05:31:31;;;;;;;48.55;20.85;;;;;;;;;;5032076;28;20029;-69
2022/11/13 05:33:57;;;;;;;56.20;23.20;;;;;;;;;;5033179;28;20024;-70
2022/11/13 05:36:22;;;;;;;55.03;22.27;;;;;;;;;;5034702;28;20021;-67
2022/11/13 05:38:47;;;;;;;50.72;23.15;;;;;;;;;;5036782;28;20024;-69
2022/11/13 05:41:14;;;;;;;59.97;23.90;;;;;;;;;;5031519;28;20463;-69
2022/11/13 05:43:39;;;;;;;46.08;22.23;;;;;;;;;;5030487;28;20020;-69
2022/11/13 05:46:11;;;;;;;57.17;24.30;;;;;;;;;;5034898;28;20017;-69
2022/11/13 05:48:36;;;;;;;61.47;24.58;;;;;;;;;;5033982;28;20033;-68
2022/11/13 05:51:03;;;;;;;49.67;24.38;;;;;;;;;;5034645;28;20028;-69
2022/11/13 05:53:29;;;;;;;58.70;24.33;;;;;;;;;;5032348;28;20017;-67
2022/11/13 05:55:58;;;;;;;50.92;23.30;;;;;;;;;;5031488;28;20021;-68
2022/11/13 05:58:23;;;;;;;;;;;;;;;;;;5031058;28;20082;-66
2022/11/13 06:00:48;;;;;;;49.22;22.15;;;;;;;;;;5030785;28;19909;-68
2022/11/13 06:03:13;;;;;;;51.97;24.15;;;;;;;;;;5031949;28;20354;-69
2022/11/13 06:05:39;;;;;;;52.70;23.67;;;;;;;;;;5031756;28;20735;-69
2022/11/13 06:08:04;;;;;;;44.88;21.63;;;;;;;;;;5031698;28;20044;-69
2022/11/13 06:10:29;;;;;;;49.35;21.52;;;;;;;;;;5033889;28;20395;-70
2022/11/13 06:12:54;;;;;;;65.82;24.98;;;;;;;;;;5034364;28;20278;-69
2022/11/13 06:15:19;;;;;;;52.33;23.63;;;;;;;;;;5034808;28;20428;-65
2022/11/13 06:17:45;;;;;;;47.50;22.20;;;;;;;;;;5032859;28;20024;-69
2022/11/13 06:20:10;;;;;;;61.67;24.55;;;;;;;;;;5031969;28;20017;-67
2022/11/13 06:22:35;;;;;;;53.72;22.10;;;;;;;;;;5032342;28;20052;-69
2022/11/13 06:25:01;;;;;;;55.47;21.52;;;;;;;;;;5031949;28;20056;-70
2022/11/13 06:27:26;;;;;;;59.25;23.00;;;;;;;;;;5029314;28;20136;-69
2022/11/13 06:29:51;;;;;;;55.95;22.00;;;;;;;;;;5027306;28;20022;-67
2022/11/13 06:32:17;;;;;;;62.65;22.67;;;;;;;;;;5028889;28;20029;-69
2022/11/13 06:34:42;;;;;;;56.42;22.83;;;;;;;;;;5030409;28;20482;-68
2022/11/13 06:37:07;;;;;;;61.40;24.13;;;;;;;;;;5029374;28;20590;-68
2022/11/13 06:39:32;;;;;;;52.53;23.45;;;;;;;;;;5030585;28;20537;-67
2022/11/13 06:41:57;;;;;;;55.83;22.15;;;;;;;;;;5028775;28;20447;-70
2022/11/13 06:44:23;;;;;;;45.15;20.25;;;;;;;;;;5024579;28;20101;-68
2022/11/13 06:46:48;;;;;;;39.15;16.58;;;;;;;;;;5027462;28;20471;-66
2022/11/13 06:49:13;;;;;;;32.60;16.70;;;;;;;;;;5029284;28;20060;-68
2022/11/13 06:51:39;;;;;;;37.42;16.08;;;;;;;;;;5028789;28;20088;-67
2022/11/13 06:54:04;;;;;;;43.17;17.52;;;;;;;;;;5030863;28;20391;-68
2022/11/13 06:56:29;;;;;;;33.25;16.38;;;;;;;;;;5032162;28;20025;-67
2022/11/13 06:58:55;;;;;;;33.55;15.93;;;;;;;;;;5032554;28;20032;-70
2022/11/13 07:01:21;;;;;;;35.42;15.63;;;;;;;;;;5031058;28;20340;-69
2022/11/13 07:03:46;;;;;;;38.90;16.83;;;;;;;;;;5032541;28;20036;-67
2022/11/13 07:06:15;;;;;;;36.22;16.83;;;;;;;;;;5031714;28;20496;-67
2022/11/13 07:08:41;;;;;;;37.33;16.23;;;;;;;;;;5025787;28;20052;-70
2022/11/13 07:11:08;;;;;;;40.38;14.05;;;;;;;;;;5032475;28;20049;-70
2022/11/13 07:13:33;;;;;;;43.30;16.10;;;;;;;;;;5019873;28;20022;-68
2022/11/13 07:16:02;;;;;;;35.70;15.73;;;;;;;;;;5031202;28;20014;-69
2022/11/13 07:18:28;;;;;;;;;;;;;;;;;;5032191;28;20483;-67
2022/11/13 07:20:53;;;;;;;30.73;16.00;;;;;;;;;;5032525;28;20004;-68
2022/11/13 07:23:18;;;;;;;38.05;16.88;;;;;;;;;;5032411;28;20029;-67
2022/11/13 07:25:43;;;;;;;44.03;18.65;;;;;;;;;;5032496;28;20022;-68
2022/11/13 07:28:09;;;;;;;37.13;15.68;;;;;;;;;;5033456;28;20024;-69
2022/11/13 07:30:34;;;;;;;49.97;17.48;;;;;;;;;;5028461;28;20108;-69
2022/11/13 07:33:02;;;;;;;34.35;15.50;;;;;;;;;;5031628;28;20029;-70
2022/11/13 07:35:28;;;;;;;47.28;17.50;;;;;;;;;;5029486;28;20018;-69
2022/11/13 07:37:56;;;;;;;36.83;14.63;;;;;;;;;;5030707;28;20406;-69
2022/11/13 07:40:21;;;;;;;45.47;16.38;;;;;;;;;;5031495;28;20483;-68
2022/11/13 07:42:47;;;;;;;38.85;16.90;;;;;;;;;;5029026;28;20104;-67
2022/11/13 07:45:12;;;;;;;33.95;16.35;;;;;;;;;;5033303;28;20045;-69
2022/11/13 07:47:37;;;;;;;37.80;16.58;;;;;;;;;;5030105;28;20696;-67
2022/11/13 07:50:03;;;;;;;42.58;17.63;;;;;;;;;;5030527;28;20033;-68
2022/11/13 07:52:28;;;;;;;44.35;17.92;;;;;;;;;;5032079;28;20108;-69
2022/11/13 07:54:53;;;;;;;43.63;17.13;;;;;;;;;;5032115;28;20014;-71
2022/11/13 07:57:19;;;;;;;40.00;16.83;;;;;;;;;;5031380;28;20009;-67
2022/11/13 07:59:44;;;;;;;43.05;16.83;;;;;;;;;;5030221;28;20018;-70
2022/11/13 08:02:13;;;;;;;42.00;16.67;;;;;;;;;;5029669;28;20051;-68
2022/11/13 08:04:38;;;;;;;43.13;15.90;;;;;;;;;;5031400;28;20060;-69
2022/11/13 08:07:03;;;;;;;40.35;15.65;;;;;;;;;;5030237;28;20290;-68
2022/11/13 08:09:28;;;;;;;41.47;15.05;;;;;;;;;;5032562;28;20045;-69
2022/11/13 08:11:54;;;;;;;40.95;16.80;;;;;;;;;;5030974;28;20048;-68
2022/11/13 08:14:19;;;;;;;47.15;16.67;;;;;;;;;;5032532;28;20022;-67
2022/11/13 08:16:44;;;;;;;42.70;16.20;;;;;;;;;;5024910;28;20087;-67
2022/11/13 08:19:09;;;;;;;42.80;15.68;;;;;;;;;;5036043;28;20507;-71
2022/11/13 08:21:35;;;;;;;44.40;15.63;;;;;;;;;;5030104;28;20737;-70
2022/11/13 08:24:00;;;;;;;33.88;15.60;;;;;;;;;;5030260;28;20025;-70
2022/11/13 08:26:25;;;;;;;44.30;16.33;;;;;;;;;;5030472;28;20037;-68
2022/11/13 08:28:51;;;;;;;50.25;18.25;;;;;;;;;;5031245;28;20025;-66
2022/11/13 08:31:16;;;;;;;71.38;30.90;;;;;;;;;;5023911;28;20017;-67
2022/11/13 08:33:41;;;;;;;52.47;18.55;;;;;;;;;;5029215;28;20025;-67
2022/11/13 08:36:07;;;;;;;44.13;17.27;;;;;;;;;;5030217;28;20105;-67
2022/11/13 08:38:33;;;;;;;45.47;17.45;;;;;;;;;;5030356;28;20032;-68
2022/11/13 08:40:59;;;;;;;62.50;18.67;;;;;;;;;;5029141;28;20025;-66
2022/11/13 08:43:24;;;;;;;45.85;17.77;;;;;;;;;;5030861;28;20034;-67
2022/11/13 08:45:49;;;;;;;52.08;17.50;;;;;;;;;;5029440;28;20041;-69
2022/11/13 08:48:15;;;;;;;50.40;18.63;;;;;;;;;;5029701;28;20422;-67
2022/11/13 08:50:40;;;;;;;65.20;25.75;;;;;;;;;;5029371;28;20295;-68
2022/11/13 08:53:05;;;;;;;60.13;21.75;;;;;;;;;;5029824;28;20108;-66
2022/11/13 08:55:32;;;;;;;68.07;25.25;;;;;;;;;;5030846;28;20071;-68
2022/11/13 08:57:58;;;;;;;50.22;21.15;;;;;;;;;;5019829;28;20025;-65
2022/11/13 09:00:24;;;;;;;47.17;18.25;;;;;;;;;;5021547;28;20017;-68
2022/11/13 09:02:52;;;;;;;45.65;19.30;;;;;;;;;;5023030;28;20024;-67
2022/11/13 09:05:17;;;;;;;68.40;22.38;;;;;;;;;;5021156;28;20030;-65
2022/11/13 09:07:43;;;;;;;358.05;95.80;;;;;;;;;;5020420;28;20025;-67
2022/11/13 09:10:08;;;;;;;141.73;39.28;;;;;;;;;;5022917;28;20033;-67
2022/11/13 09:12:33;;;;;;;237.75;64.07;;;;;;;;;;5023714;28;20030;-68
2022/11/13 09:14:58;;;;;;;106.95;33.28;;;;;;;;;;5021761;28;20751;-65
2022/11/13 09:17:24;;;;;;;95.28;32.53;;;;;;;;;;5018923;28;20567;-65
2022/11/13 09:19:49;;;;;;;97.45;34.63;;;;;;;;;;5023348;28;20425;-66
2022/11/13 09:22:14;;;;;;;77.97;26.98;;;;;;;;;;5022115;28;20670;-66
2022/11/13 09:24:39;;;;;;;52.80;22.27;;;;;;;;;;5021460;28;20029;-66
2022/11/13 09:27:05;;;;;;;59.10;22.70;;;;;;;;;;5022466;28;20034;-65
2022/11/13 09:29:30;;;;;;;60.58;23.52;;;;;;;;;;5020429;28;20033;-68
2022/11/13 09:31:55;;;;;;;66.47;25.83;;;;;;;;;;5021972;28;20033;-66
2022/11/13 09:34:21;;;;;;;61.35;23.65;;;;;;;;;;5023363;28;20029;-67
2022/11/13 09:36:46;;;;;;;70.13;24.85;;;;;;;;;;5021035;28;20028;-67
2022/11/13 09:39:12;;;;;;;55.83;22.65;;;;;;;;;;5020590;28;20022;-66
2022/11/13 09:41:40;;;;;;;57.88;22.33;;;;;;;;;;5021332;28;20033;-65
2022/11/13 09:44:10;;;;;;;60.50;22.08;;;;;;;;;;5022724;28;20037;-68
2022/11/13 09:46:42;;;;;;;79.68;27.08;;;;;;;;;;5019735;28;20037;-65
2022/11/13 09:49:10;;;;;;;67.30;25.30;;;;;;;;;;5018918;28;20106;-66
2022/11/13 09:51:36;;;;;;;54.50;24.33;;;;;;;;;;5022891;28;20531;-66
2022/11/13 09:54:04;;;;;;;62.20;26.10;;;;;;;;;;5022127;28;20029;-68
2022/11/13 09:56:33;;;;;;;70.10;26.15;;;;;;;;;;5019915;28;20025;-66
2022/11/13 09:58:58;;;;;;;56.63;23.05;;;;;;;;;;5017453;28;20343;-66
2022/11/13 10:01:28;;;;;;;79.10;29.52;;;;;;;;;;5022265;28;20024;-68
2022/11/13 10:04:03;;;;;;;64.22;23.67;;;;;;;;;;5022707;28;20041;-66
2022/11/13 10:06:53;;;;;;;64.57;24.98;;;;;;;;;;5021055;28;20025;-67
2022/11/13 10:09:24;;;;;;;62.55;23.50;;;;;;;;;;5018826;28;20164;-66
2022/11/13 10:11:54;;;;;;;63.72;23.33;;;;;;;;;;5020959;28;20106;-66
2022/11/13 10:14:22;;;;;;;64.13;23.75;;;;;;;;;;5019760;28;20044;-66
2022/11/13 10:16:57;;;;;;;61.90;23.40;;;;;;;;;;5019960;28;20022;-66
2022/11/13 10:19:22;;;;;;;56.72;24.48;;;;;;;;;;5019439;28;20009;-67
2022/11/13 10:21:49;;;;;;;68.68;25.80;;;;;;;;;;5021495;28;20093;-67
2022/11/13 10:24:21;;;;;;;56.45;24.50;;;;;;;;;;5022244;28;20110;-66
2022/11/13 10:26:46;;;;;;;55.65;23.05;;;;;;;;;;5022300;28;20028;-66
2022/11/13 10:29:12;;;;;;;53.95;22.52;;;;;;;;;;5019639;28;20026;-66
2022/11/13 10:31:45;;;;;;;57.78;23.50;;;;;;;;;;5020214;28;20033;-67
2022/11/13 10:34:11;;;;;;;56.03;22.67;;;;;;;;;;5022160;28;20774;-68
2022/11/13 10:36:59;;;;;;;52.53;22.52;;;;;;;;;;5020317;28;20041;-64
2022/11/13 10:39:24;;;;;;;53.17;24.70;;;;;;;;;;5014881;28;20036;-67
2022/11/13 10:41:51;;;;;;;69.05;29.45;;;;;;;;;;5021115;28;20017;-67
2022/11/13 10:44:17;;;;;;;47.47;20.60;;;;;;;;;;5022057;28;20383;-65
2022/11/13 10:46:42;;;;;;;46.97;20.80;;;;;;;;;;5019857;28;20071;-68
2022/11/13 10:49:17;;;;;;;47.60;21.85;;;;;;;;;;5019055;28;20183;-68
2022/11/13 10:51:43;;;;;;;51.63;20.70;;;;;;;;;;5021132;28;20034;-68
2022/11/13 10:54:22;;;;;;;54.63;22.45;;;;;;;;;;5023654;28;20025;-65
2022/11/13 10:56:57;;;;;;;47.08;20.98;;;;;;;;;;5019181;28;20025;-69
2022/11/13 10:59:24;;;;;;;50.50;19.88;;;;;;;;;;5018854;28;20049;-68
2022/11/13 11:01:49;;;;;;;48.08;21.40;;;;;;;;;;5018856;28;20029;-69
2022/11/13 11:04:28;;;;;;;46.85;22.67;;;;;;;;;;5022287;28;20029;-71
2022/11/13 11:06:54;;;;;;;43.75;20.50;;;;;;;;;;5017181;28;20026;-67
2022/11/13 11:09:24;;;;;;;50.53;20.30;;;;;;;;;;5016547;28;20022;-71
2022/11/13 11:14:46;;;;;;;43.90;20.52;;;;;;;;;;5022514;28;20052;-70
2022/11/13 11:17:13;;;;;;;44.00;20.63;;;;;;;;;;5019491;28;20636;-68
2022/11/13 11:19:39;;;;;;;41.65;20.17;;;;;;;;;;5018028;28;20064;-69
2022/11/13 11:22:12;;;;;;;47.05;21.02;;;;;;;;;;5020455;28;20017;-69
2022/11/13 11:24:41;;;;;;;43.70;20.65;;;;;;;;;;5021787;28;20040;-69
2022/11/13 11:27:18;;;;;;;47.22;21.52;;;;;;;;;;5020668;28;20025;-70
2022/11/13 11:29:47;;;;;;;45.22;20.65;;;;;;;;;;5020608;28;20029;-67
2022/11/13 11:32:15;;;;;;;45.22;20.63;;;;;;;;;;5020022;28;20053;-68
2022/11/13 11:34:43;;;;;;;47.38;19.98;;;;;;;;;;5019897;28;20036;-66
2022/11/13 11:37:11;;;;;;;46.47;20.35;;;;;;;;;;5020101;28;20096;-68
2022/11/13 11:39:41;;;;;;;46.90;20.55;;;;;;;;;;5020652;28;20096;-69
2022/11/13 11:42:27;;;;;;;43.83;20.10;;;;;;;;;;5025479;28;20133;-71
2022/11/13 11:45:10;;;;;;;43.55;19.42;;;;;;;;;;5023687;28;20089;-68
2022/11/13 11:47:35;;;;;;;43.35;20.42;;;;;;;;;;5017929;28;20052;-68
2022/11/13 11:50:01;;;;;;;45.22;20.80;;;;;;;;;;5023960;28;20117;-69
2022/11/13 11:52:41;;;;;;;48.63;21.10;;;;;;;;;;5024425;28;20035;-65
2022/11/13 11:55:22;;;;;;;43.88;20.38;;;;;;;;;;5025090;28;20029;-67
2022/11/13 11:58:00;;;;;;;49.15;20.70;;;;;;;;;;5020636;28;20533;-68
2022/11/13 12:00:28;;;;;;;44.42;21.13;;;;;;;;;;5024046;28;20084;-70
2022/11/13 12:02:53;;;;;;;53.67;22.40;;;;;;;;;;5022782;28;20395;-67
2022/11/13 12:05:25;;;;;;;39.83;19.05;;;;;;;;;;5022952;28;20029;-67
2022/11/13 12:08:02;;;;;;;45.17;21.73;;;;;;;;;;5018147;28;20048;-67
2022/11/13 12:10:33;;;;;;;47.40;20.95;;;;;;;;;;5022662;28;20096;-70
2022/11/13 12:13:04;;;;;;;40.80;19.35;;;;;;;;;;5024151;28;20574;-67
2022/11/13 12:15:38;;;;;;;50.25;22.42;;;;;;;;;;5023918;28;20029;-69
2022/11/13 12:18:09;;;;;;;49.78;21.65;;;;;;;;;;5019861;28;20688;-70
2022/11/13 12:20:47;;;;;;;51.17;23.48;;;;;;;;;;5022588;28;20029;-71
2022/11/13 12:23:12;;;;;;;48.35;21.90;;;;;;;;;;5023665;28;20036;-69
2022/11/13 12:25:40;;;;;;;47.95;21.92;;;;;;;;;;5024388;28;20037;-66
2022/11/13 12:28:05;;;;;;;46.20;21.48;;;;;;;;;;5020966;28;20368;-68
2022/11/13 12:30:30;;;;;;;50.58;21.52;;;;;;;;;;5022952;28;20511;-69
2022/11/13 12:32:58;;;;;;;54.58;22.25;;;;;;;;;;5022449;28;20025;-69
2022/11/13 12:35:24;;;;;;;58.10;21.90;;;;;;;;;;5023712;28;20029;-70
2022/11/13 12:38:07;;;;;;;61.30;25.00;;;;;;;;;;5018941;28;20060;-69
2022/11/13 12:40:33;;;;;;;52.78;21.63;;;;;;;;;;5024108;28;20109;-69
2022/11/13 12:43:01;;;;;;;51.38;24.05;;;;;;;;;;5023674;28;20116;-67
2022/11/13 12:45:42;;;;;;;56.60;23.47;;;;;;;;;;5022121;28;20025;-68
2022/11/13 12:48:08;;;;;;;60.25;24.48;;;;;;;;;;5019435;28;20267;-69
2022/11/13 12:50:35;;;;;;;52.35;23.35;;;;;;;;;;5023612;28;20080;-65
2022/11/13 12:53:01;;;;;;;61.00;25.50;;;;;;;;;;5020392;28;20026;-69
2022/11/13 12:55:34;;;;;;;75.32;24.85;;;;;;;;;;5022347;28;20113;-68
2022/11/13 12:58:19;;;;;;;61.90;26.77;;;;;;;;;;5017989;28;20025;-71
2022/11/13 13:00:54;;;;;;;55.80;26.23;;;;;;;;;;5022600;28;20495;-68
2022/11/13 13:03:25;;;;;;;58.40;24.10;;;;;;;;;;5023073;28;20033;-67
2022/11/13 13:05:50;;;;;;;64.88;26.23;;;;;;;;;;5021250;28;20491;-69
2022/11/13 13:08:32;;;;;;;52.13;24.23;;;;;;;;;;5018031;28;20057;-66
2022/11/13 13:10:58;;;;;;;52.88;22.80;;;;;;;;;;5022689;28;20053;-70
2022/11/13 13:13:29;;;;;;;59.83;26.15;;;;;;;;;;5021550;28;20060;-67
2022/11/13 13:15:56;;;;;;;61.35;24.00;;;;;;;;;;5021623;28;20033;-69
2022/11/13 13:18:27;;;;;;;57.38;24.13;;;;;;;;;;5016926;28;20421;-69
2022/11/13 13:20:55;;;;;;;55.22;23.90;;;;;;;;;;5022879;28;20437;-66
2022/11/13 13:23:28;;;;;;;53.97;24.05;;;;;;;;;;5020057;28;20104;-69
2022/11/13 13:26:05;;;;;;;53.58;25.10;;;;;;;;;;5021808;28;20112;-65
2022/11/13 13:28:31;;;;;;;50.20;22.20;;;;;;;;;;5017764;28;20033;-68
2022/11/13 13:31:06;;;;;;;56.40;25.35;;;;;;;;;;5021243;28;20087;-68
2022/11/13 13:33:34;;;;;;;52.33;23.20;;;;;;;;;;5022613;28;20053;-68
2022/11/13 13:36:07;;;;;;;50.15;23.85;;;;;;;;;;5021780;28;20062;-66
2022/11/13 13:38:36;;;;;;;55.08;26.20;;;;;;;;;;5015919;28;20021;-67
2022/11/13 13:41:10;;;;;;;58.45;26.30;;;;;;;;;;5023493;28;20033;-65
2022/11/13 13:43:39;;;;;;;51.60;23.00;;;;;;;;;;5022873;28;20096;-68
2022/11/13 13:46:07;;;;;;;76.07;29.02;;;;;;;;;;5019933;28;20037;-69
2022/11/13 13:48:36;;;;;;;59.20;24.23;;;;;;;;;;5016232;28;20083;-67
2022/11/13 13:51:02;;;;;;;64.78;25.48;;;;;;;;;;5022112;28;20053;-68
2022/11/13 13:53:30;;;;;;;63.22;27.05;;;;;;;;;;5020858;28;20060;-67
2022/11/13 13:55:55;;;;;;;61.10;25.55;;;;;;;;;;5021062;28;20021;-67
2022/11/13 13:58:31;;;;;;;55.38;25.10;;;;;;;;;;5015868;28;20018;-67
2022/11/13 14:01:01;;;;;;;55.65;25.00;;;;;;;;;;5020380;28;20021;-68
2022/11/13 14:03:28;;;;;;;52.35;23.90;;;;;;;;;;5020867;28;20053;-67
2022/11/13 14:05:53;;;;;;;52.45;23.23;;;;;;;;;;5020568;28;20025;-68
2022/11/13 14:08:23;;;;;;;49.78;22.45;;;;;;;;;;5016707;28;20116;-67
2022/11/13 14:10:48;;;;;;;50.53;22.38;;;;;;;;;;5021591;28;20543;-67
2022/11/13 14:13:21;;;;;;;45.95;21.80;;;;;;;;;;5022744;28;20117;-64
2022/11/13 14:15:46;;;;;;;55.45;24.63;;;;;;;;;;5021822;28;20495;-67
2022/11/13 14:18:16;;;;;;;47.05;21.73;;;;;;;;;;5017157;28;20053;-64